sensor_id;sensor_type;location;lat;lon;timestamp;P1;durP1;ratioP1;P2;durP2;ratioP2
45944;SDS011;31655;48.972;10.686;2023-03-13T00:01:29;9.70;;;2.28;;
45944;SDS011;31655;48.972;10.686;2023-03-13T00:03:57;8.18;;;2.70;;
45944;SDS011;31655;48.972;10.686;2023-03-13T00:06:24;8.68;;;3.00;;
45944;SDS011;31655;48.972;10.686;2023-03-13T00:08:53;13.38;;;2.70;;
45944;SDS011;31655;48.972;10.686;2023-03-13T00:11:19;13.55;;;3.03;;
45944;SDS011;31655;48.972;10.686;2023-03-13T00:13:45;16.73;;;3.08;;
45944;SDS011;31655;48.972;10.686;2023-03-13T00:16:12;12.82;;;3.50;;
45944;SDS011;31655;48.972;10.686;2023-03-13T00:18:43;15.43;;;3.35;;
45944;SDS011;31655;48.972;10.686;2023-03-13T00:21:11;6.47;;;2.13;;
45944;SDS011;31655;48.972;10.686;2023-03-13T00:23:37;13.68;;;3.63;;
45944;SDS011;31655;48.972;10.686;2023-03-13T00:26:13;12.82;;;2.78;;
45944;SDS011;31655;48.972;10.686;2023-03-13T00:28:40;14.00;;;2.67;;
45944;SDS011;31655;48.972;10.686;2023-03-13T00:31:07;11.25;;;4.00;;
45944;SDS011;31655;48.972;10.686;2023-03-13T00:33:33;11.98;;;3.17;;
45944;SDS011;31655;48.972;10.686;2023-03-13T00:36:00;18.55;;;3.92;;
45944;SDS011;31655;48.972;10.686;2023-03-13T00:38:28;12.45;;;3.38;;
45944;SDS011;31655;48.972;10.686;2023-03-13T00:41:03;14.63;;;3.47;;
45944;SDS011;31655;48.972;10.686;2023-03-13T00:43:31;14.38;;;4.47;;
45944;SDS011;31655;48.972;10.686;2023-03-13T00:45:57;11.43;;;3.45;;
45944;SDS011;31655;48.972;10.686;2023-03-13T00:48:23;11.88;;;3.85;;
45944;SDS011;31655;48.972;10.686;2023-03-13T00:50:49;9.02;;;3.38;;
45944;SDS011;31655;48.972;10.686;2023-03-13T00:53:15;11.70;;;3.92;;
45944;SDS011;31655;48.972;10.686;2023-03-13T00:58:17;9.48;;;3.72;;
45944;SDS011;31655;48.972;10.686;2023-03-13T01:00:42;12.40;;;3.30;;
45944;SDS011;31655;48.972;10.686;2023-03-13T01:03:08;10.82;;;3.40;;
45944;SDS011;31655;48.972;10.686;2023-03-13T01:05:34;12.63;;;3.67;;
45944;SDS011;31655;48.972;10.686;2023-03-13T01:08:00;12.93;;;3.97;;
45944;SDS011;31655;48.972;10.686;2023-03-13T01:10:26;11.43;;;3.63;;
45944;SDS011;31655;48.972;10.686;2023-03-13T01:12:52;11.70;;;3.22;;
45944;SDS011;31655;48.972;10.686;2023-03-13T01:15:18;8.50;;;3.80;;
45944;SDS011;31655;48.972;10.686;2023-03-13T01:17:44;12.75;;;3.88;;
45944;SDS011;31655;48.972;10.686;2023-03-13T01:20:10;8.90;;;3.47;;
45944;SDS011;31655;48.972;10.686;2023-03-13T01:22:36;11.32;;;3.80;;
45944;SDS011;31655;48.972;10.686;2023-03-13T01:25:02;16.38;;;3.88;;
45944;SDS011;31655;48.972;10.686;2023-03-13T01:27:29;10.57;;;3.30;;
45944;SDS011;31655;48.972;10.686;2023-03-13T01:29:55;8.25;;;3.72;;
45944;SDS011;31655;48.972;10.686;2023-03-13T01:32:21;9.88;;;3.35;;
45944;SDS011;31655;48.972;10.686;2023-03-13T01:34:47;8.68;;;4.47;;
45944;SDS011;31655;48.972;10.686;2023-03-13T01:37:13;8.93;;;3.80;;
45944;SDS011;31655;48.972;10.686;2023-03-13T01:39:39;9.07;;;3.33;;
45944;SDS011;31655;48.972;10.686;2023-03-13T01:42:05;6.07;;;4.05;;
45944;SDS011;31655;48.972;10.686;2023-03-13T01:44:50;9.63;;;3.53;;
45944;SDS011;31655;48.972;10.686;2023-03-13T01:47:21;7.60;;;3.28;;
45944;SDS011;31655;48.972;10.686;2023-03-13T01:49:47;14.60;;;3.80;;
45944;SDS011;31655;48.972;10.686;2023-03-13T01:52:22;13.25;;;3.85;;
45944;SDS011;31655;48.972;10.686;2023-03-13T01:57:29;5.78;;;3.65;;
45944;SDS011;31655;48.972;10.686;2023-03-13T01:59:58;12.02;;;4.45;;
45944;SDS011;31655;48.972;10.686;2023-03-13T02:02:38;10.85;;;3.90;;
45944;SDS011;31655;48.972;10.686;2023-03-13T02:05:07;7.72;;;3.40;;
45944;SDS011;31655;48.972;10.686;2023-03-13T02:07:44;8.27;;;3.25;;
45944;SDS011;31655;48.972;10.686;2023-03-13T02:10:19;11.77;;;3.90;;
45944;SDS011;31655;48.972;10.686;2023-03-13T02:12:46;8.50;;;3.67;;
45944;SDS011;31655;48.972;10.686;2023-03-13T02:15:18;7.75;;;3.15;;
45944;SDS011;31655;48.972;10.686;2023-03-13T02:17:46;10.50;;;4.72;;
45944;SDS011;31655;48.972;10.686;2023-03-13T02:20:16;24.73;;;12.52;;
45944;SDS011;31655;48.972;10.686;2023-03-13T02:33:25;8.85;;;4.03;;
45944;SDS011;31655;48.972;10.686;2023-03-13T02:35:54;14.18;;;4.38;;
45944;SDS011;31655;48.972;10.686;2023-03-13T02:38:22;6.45;;;3.20;;
45944;SDS011;31655;48.972;10.686;2023-03-13T02:40:50;13.55;;;7.43;;
45944;SDS011;31655;48.972;10.686;2023-03-13T02:43:19;8.18;;;3.72;;
45944;SDS011;31655;48.972;10.686;2023-03-13T02:48:30;12.73;;;4.18;;
45944;SDS011;31655;48.972;10.686;2023-03-13T02:50:57;9.98;;;3.75;;
45944;SDS011;31655;48.972;10.686;2023-03-13T02:53:23;9.70;;;5.43;;
45944;SDS011;31655;48.972;10.686;2023-03-13T02:55:49;14.95;;;6.50;;
45944;SDS011;31655;48.972;10.686;2023-03-13T02:58:15;19.42;;;9.55;;
45944;SDS011;31655;48.972;10.686;2023-03-13T03:00:41;12.68;;;6.13;;
45944;SDS011;31655;48.972;10.686;2023-03-13T03:03:06;14.38;;;5.93;;
45944;SDS011;31655;48.972;10.686;2023-03-13T03:05:32;13.52;;;3.65;;
45944;SDS011;31655;48.972;10.686;2023-03-13T03:07:58;7.80;;;3.83;;
45944;SDS011;31655;48.972;10.686;2023-03-13T03:10:23;8.98;;;3.38;;
45944;SDS011;31655;48.972;10.686;2023-03-13T03:12:49;10.38;;;3.25;;
45944;SDS011;31655;48.972;10.686;2023-03-13T03:15:15;8.32;;;3.00;;
45944;SDS011;31655;48.972;10.686;2023-03-13T03:17:41;7.57;;;3.65;;
45944;SDS011;31655;48.972;10.686;2023-03-13T03:20:07;13.55;;;4.20;;
45944;SDS011;31655;48.972;10.686;2023-03-13T03:22:36;15.77;;;3.28;;
45944;SDS011;31655;48.972;10.686;2023-03-13T03:25:03;13.13;;;3.60;;
45944;SDS011;31655;48.972;10.686;2023-03-13T03:27:30;10.60;;;2.97;;
45944;SDS011;31655;48.972;10.686;2023-03-13T03:29:56;8.07;;;3.20;;
45944;SDS011;31655;48.972;10.686;2023-03-13T03:32:22;11.23;;;3.45;;
45944;SDS011;31655;48.972;10.686;2023-03-13T03:34:48;6.18;;;2.65;;
45944;SDS011;31655;48.972;10.686;2023-03-13T03:37:14;8.55;;;2.85;;
45944;SDS011;31655;48.972;10.686;2023-03-13T03:39:39;5.65;;;2.70;;
45944;SDS011;31655;48.972;10.686;2023-03-13T03:42:05;5.68;;;2.67;;
45944;SDS011;31655;48.972;10.686;2023-03-13T03:44:31;6.53;;;2.72;;
45944;SDS011;31655;48.972;10.686;2023-03-13T03:46:57;15.30;;;3.25;;
45944;SDS011;31655;48.972;10.686;2023-03-13T03:49:23;10.18;;;2.35;;
45944;SDS011;31655;48.972;10.686;2023-03-13T03:51:48;29.15;;;5.80;;
45944;SDS011;31655;48.972;10.686;2023-03-13T04:53:49;44.75;;;7.90;;
45944;SDS011;31655;48.972;10.686;2023-03-13T04:56:20;7.22;;;2.60;;
45944;SDS011;31655;48.972;10.686;2023-03-13T04:58:49;10.55;;;2.58;;
45944;SDS011;31655;48.972;10.686;2023-03-13T05:01:15;7.75;;;2.47;;
45944;SDS011;31655;48.972;10.686;2023-03-13T05:03:41;8.25;;;2.75;;
45944;SDS011;31655;48.972;10.686;2023-03-13T05:06:07;13.55;;;2.95;;
45944;SDS011;31655;48.972;10.686;2023-03-13T05:08:33;9.45;;;2.05;;
45944;SDS011;31655;48.972;10.686;2023-03-13T05:11:00;7.03;;;2.22;;
45944;SDS011;31655;48.972;10.686;2023-03-13T05:13:26;8.85;;;2.60;;
45944;SDS011;31655;48.972;10.686;2023-03-13T05:15:52;9.10;;;2.70;;
45944;SDS011;31655;48.972;10.686;2023-03-13T05:18:18;10.77;;;2.75;;
45944;SDS011;31655;48.972;10.686;2023-03-13T05:20:44;11.27;;;2.65;;
45944;SDS011;31655;48.972;10.686;2023-03-13T05:23:09;12.32;;;2.65;;
45944;SDS011;31655;48.972;10.686;2023-03-13T05:25:35;6.47;;;2.78;;
45944;SDS011;31655;48.972;10.686;2023-03-13T05:28:01;8.65;;;2.70;;
45944;SDS011;31655;48.972;10.686;2023-03-13T05:30:27;7.93;;;2.50;;
45944;SDS011;31655;48.972;10.686;2023-03-13T05:32:53;7.45;;;2.58;;
45944;SDS011;31655;48.972;10.686;2023-03-13T05:35:19;10.25;;;2.20;;
45944;SDS011;31655;48.972;10.686;2023-03-13T05:37:45;6.63;;;3.03;;
45944;SDS011;31655;48.972;10.686;2023-03-13T05:40:11;6.15;;;2.08;;
45944;SDS011;31655;48.972;10.686;2023-03-13T05:42:38;6.28;;;2.05;;
45944;SDS011;31655;48.972;10.686;2023-03-13T05:47:39;5.70;;;2.33;;
45944;SDS011;31655;48.972;10.686;2023-03-13T05:50:05;7.45;;;2.70;;
45944;SDS011;31655;48.972;10.686;2023-03-13T05:52:32;6.40;;;2.05;;
45944;SDS011;31655;48.972;10.686;2023-03-13T05:54:58;4.57;;;2.00;;
45944;SDS011;31655;48.972;10.686;2023-03-13T05:57:24;9.45;;;2.42;;
45944;SDS011;31655;48.972;10.686;2023-03-13T05:59:50;5.63;;;2.67;;
45944;SDS011;31655;48.972;10.686;2023-03-13T06:02:16;8.32;;;2.17;;
45944;SDS011;31655;48.972;10.686;2023-03-13T06:04:41;4.25;;;1.77;;
45944;SDS011;31655;48.972;10.686;2023-03-13T06:07:07;5.78;;;1.77;;
45944;SDS011;31655;48.972;10.686;2023-03-13T06:09:33;7.65;;;1.63;;
45944;SDS011;31655;48.972;10.686;2023-03-13T06:11:58;8.43;;;1.50;;
45944;SDS011;31655;48.972;10.686;2023-03-13T06:14:24;6.45;;;1.95;;
45944;SDS011;31655;48.972;10.686;2023-03-13T06:16:50;6.28;;;1.92;;
45944;SDS011;31655;48.972;10.686;2023-03-13T06:19:16;4.93;;;1.42;;
45944;SDS011;31655;48.972;10.686;2023-03-13T06:21:42;4.25;;;1.88;;
45944;SDS011;31655;48.972;10.686;2023-03-13T06:24:08;5.20;;;1.83;;
45944;SDS011;31655;48.972;10.686;2023-03-13T06:26:34;6.90;;;2.22;;
45944;SDS011;31655;48.972;10.686;2023-03-13T06:29:00;4.72;;;1.50;;
45944;SDS011;31655;48.972;10.686;2023-03-13T06:31:26;7.63;;;2.25;;
45944;SDS011;31655;48.972;10.686;2023-03-13T06:33:55;4.57;;;1.83;;
45944;SDS011;31655;48.972;10.686;2023-03-13T06:36:23;3.45;;;1.23;;
45944;SDS011;31655;48.972;10.686;2023-03-13T06:38:49;5.75;;;1.45;;
45944;SDS011;31655;48.972;10.686;2023-03-13T06:41:15;4.25;;;1.25;;
45944;SDS011;31655;48.972;10.686;2023-03-13T06:43:41;3.88;;;1.10;;
45944;SDS011;31655;48.972;10.686;2023-03-13T06:46:08;3.38;;;1.88;;
45944;SDS011;31655;48.972;10.686;2023-03-13T06:48:48;2.92;;;1.63;;
45944;SDS011;31655;48.972;10.686;2023-03-13T06:51:15;7.13;;;1.75;;
45944;SDS011;31655;48.972;10.686;2023-03-13T06:53:43;4.20;;;1.58;;
45944;SDS011;31655;48.972;10.686;2023-03-13T06:56:09;4.57;;;1.60;;
45944;SDS011;31655;48.972;10.686;2023-03-13T06:58:35;5.03;;;1.38;;
45944;SDS011;31655;48.972;10.686;2023-03-13T07:01:11;4.88;;;1.55;;
45944;SDS011;31655;48.972;10.686;2023-03-13T07:03:38;6.25;;;1.50;;
45944;SDS011;31655;48.972;10.686;2023-03-13T07:06:08;4.15;;;1.60;;
45944;SDS011;31655;48.972;10.686;2023-03-13T07:08:35;7.65;;;2.40;;
45944;SDS011;31655;48.972;10.686;2023-03-13T07:11:06;3.95;;;2.03;;
45944;SDS011;31655;48.972;10.686;2023-03-13T07:13:33;4.55;;;1.50;;
45944;SDS011;31655;48.972;10.686;2023-03-13T07:16:02;3.50;;;2.10;;
45944;SDS011;31655;48.972;10.686;2023-03-13T07:18:30;7.95;;;1.85;;
45944;SDS011;31655;48.972;10.686;2023-03-13T07:20:56;3.40;;;1.33;;
45944;SDS011;31655;48.972;10.686;2023-03-13T07:23:24;3.67;;;1.50;;
45944;SDS011;31655;48.972;10.686;2023-03-13T07:25:54;2.03;;;1.35;;
45944;SDS011;31655;48.972;10.686;2023-03-13T07:28:24;3.42;;;1.50;;
45944;SDS011;31655;48.972;10.686;2023-03-13T07:30:51;1.88;;;1.23;;
45944;SDS011;31655;48.972;10.686;2023-03-13T07:33:17;4.18;;;1.60;;
45944;SDS011;31655;48.972;10.686;2023-03-13T07:35:50;5.45;;;1.58;;
45944;SDS011;31655;48.972;10.686;2023-03-13T07:38:16;5.03;;;1.85;;
45944;SDS011;31655;48.972;10.686;2023-03-13T07:40:46;2.08;;;1.23;;
45944;SDS011;31655;48.972;10.686;2023-03-13T07:43:16;4.78;;;1.70;;
45944;SDS011;31655;48.972;10.686;2023-03-13T07:48:24;5.38;;;1.38;;
45944;SDS011;31655;48.972;10.686;2023-03-13T07:50:53;6.28;;;1.52;;
45944;SDS011;31655;48.972;10.686;2023-03-13T07:53:19;3.70;;;1.80;;
45944;SDS011;31655;48.972;10.686;2023-03-13T07:55:52;4.55;;;1.33;;
45944;SDS011;31655;48.972;10.686;2023-03-13T07:58:24;4.40;;;1.30;;
45944;SDS011;31655;48.972;10.686;2023-03-13T08:00:51;3.35;;;1.48;;
45944;SDS011;31655;48.972;10.686;2023-03-13T08:03:18;3.08;;;1.50;;
45944;SDS011;31655;48.972;10.686;2023-03-13T08:05:44;3.13;;;1.48;;
45944;SDS011;31655;48.972;10.686;2023-03-13T08:08:10;2.03;;;1.48;;
45944;SDS011;31655;48.972;10.686;2023-03-13T08:10:36;5.72;;;1.85;;
45944;SDS011;31655;48.972;10.686;2023-03-13T08:13:02;3.72;;;1.90;;
45944;SDS011;31655;48.972;10.686;2023-03-13T08:15:28;4.05;;;1.60;;
45944;SDS011;31655;48.972;10.686;2023-03-13T08:17:54;7.82;;;2.17;;
45944;SDS011;31655;48.972;10.686;2023-03-13T08:20:20;1.60;;;0.90;;
45944;SDS011;31655;48.972;10.686;2023-03-13T08:22:46;4.43;;;1.30;;
45944;SDS011;31655;48.972;10.686;2023-03-13T08:25:13;6.05;;;1.33;;
45944;SDS011;31655;48.972;10.686;2023-03-13T08:27:39;6.65;;;2.20;;
45944;SDS011;31655;48.972;10.686;2023-03-13T08:30:04;3.03;;;1.45;;
45944;SDS011;31655;48.972;10.686;2023-03-13T08:32:34;3.53;;;1.52;;
45944;SDS011;31655;48.972;10.686;2023-03-13T08:35:00;6.85;;;2.08;;
45944;SDS011;31655;48.972;10.686;2023-03-13T08:37:26;2.97;;;1.55;;
45944;SDS011;31655;48.972;10.686;2023-03-13T08:39:52;4.22;;;1.60;;
45944;SDS011;31655;48.972;10.686;2023-03-13T08:42:20;5.22;;;1.02;;
45944;SDS011;31655;48.972;10.686;2023-03-13T08:44:47;4.50;;;1.27;;
45944;SDS011;31655;48.972;10.686;2023-03-13T08:47:13;5.72;;;1.50;;
45944;SDS011;31655;48.972;10.686;2023-03-13T08:49:39;3.10;;;0.98;;
45944;SDS011;31655;48.972;10.686;2023-03-13T08:52:05;1.77;;;0.95;;
45944;SDS011;31655;48.972;10.686;2023-03-13T08:54:31;5.63;;;1.65;;
45944;SDS011;31655;48.972;10.686;2023-03-13T08:56:58;2.88;;;1.00;;
45944;SDS011;31655;48.972;10.686;2023-03-13T08:59:24;2.63;;;1.35;;
45944;SDS011;31655;48.972;10.686;2023-03-13T09:01:50;3.80;;;1.42;;
45944;SDS011;31655;48.972;10.686;2023-03-13T09:04:16;4.35;;;1.38;;
45944;SDS011;31655;48.972;10.686;2023-03-13T09:06:42;2.92;;;0.85;;
45944;SDS011;31655;48.972;10.686;2023-03-13T09:09:09;1.80;;;0.88;;
45944;SDS011;31655;48.972;10.686;2023-03-13T09:11:36;1.02;;;0.90;;
45944;SDS011;31655;48.972;10.686;2023-03-13T09:14:03;1.17;;;1.02;;
45944;SDS011;31655;48.972;10.686;2023-03-13T09:16:29;7.70;;;1.00;;
45944;SDS011;31655;48.972;10.686;2023-03-13T09:18:57;2.50;;;0.95;;
45944;SDS011;31655;48.972;10.686;2023-03-13T09:21:25;3.65;;;1.00;;
45944;SDS011;31655;48.972;10.686;2023-03-13T09:23:51;1.73;;;0.98;;
45944;SDS011;31655;48.972;10.686;2023-03-13T09:26:17;1.35;;;0.85;;
45944;SDS011;31655;48.972;10.686;2023-03-13T09:28:43;1.90;;;0.73;;
45944;SDS011;31655;48.972;10.686;2023-03-13T09:31:13;3.97;;;1.08;;
45944;SDS011;31655;48.972;10.686;2023-03-13T09:36:12;3.67;;;1.38;;
45944;SDS011;31655;48.972;10.686;2023-03-13T09:38:39;3.22;;;0.82;;
45944;SDS011;31655;48.972;10.686;2023-03-13T09:44:30;1.05;;;0.82;;
45944;SDS011;31655;48.972;10.686;2023-03-13T09:47:04;2.20;;;0.98;;
45944;SDS011;31655;48.972;10.686;2023-03-13T09:49:41;3.65;;;1.08;;
45944;SDS011;31655;48.972;10.686;2023-03-13T09:52:13;2.28;;;0.90;;
45944;SDS011;31655;48.972;10.686;2023-03-13T09:54:56;2.75;;;1.00;;
45944;SDS011;31655;48.972;10.686;2023-03-13T09:57:37;1.65;;;1.00;;
45944;SDS011;31655;48.972;10.686;2023-03-13T10:00:23;1.80;;;1.23;;
45944;SDS011;31655;48.972;10.686;2023-03-13T10:03:06;2.45;;;1.05;;
45944;SDS011;31655;48.972;10.686;2023-03-13T10:05:47;3.30;;;1.23;;
45944;SDS011;31655;48.972;10.686;2023-03-13T10:08:20;2.53;;;1.00;;
45944;SDS011;31655;48.972;10.686;2023-03-13T10:13:24;1.75;;;1.20;;
45944;SDS011;31655;48.972;10.686;2023-03-13T10:15:55;4.15;;;1.40;;
45944;SDS011;31655;48.972;10.686;2023-03-13T10:18:26;4.03;;;1.45;;
45944;SDS011;31655;48.972;10.686;2023-03-13T10:20:52;1.27;;;0.95;;
45944;SDS011;31655;48.972;10.686;2023-03-13T10:26:14;2.25;;;1.00;;
45944;SDS011;31655;48.972;10.686;2023-03-13T10:28:44;3.03;;;1.23;;
45944;SDS011;31655;48.972;10.686;2023-03-13T10:31:16;4.47;;;1.55;;
45944;SDS011;31655;48.972;10.686;2023-03-13T10:34:04;1.60;;;1.10;;
45944;SDS011;31655;48.972;10.686;2023-03-13T10:36:44;2.03;;;1.00;;
45944;SDS011;31655;48.972;10.686;2023-03-13T10:39:15;1.67;;;1.10;;
45944;SDS011;31655;48.972;10.686;2023-03-13T10:41:42;3.25;;;1.05;;
45944;SDS011;31655;48.972;10.686;2023-03-13T10:44:15;1.73;;;1.10;;
45944;SDS011;31655;48.972;10.686;2023-03-13T10:46:43;3.50;;;1.17;;
45944;SDS011;31655;48.972;10.686;2023-03-13T10:49:18;1.70;;;0.88;;
45944;SDS011;31655;48.972;10.686;2023-03-13T10:51:49;3.07;;;1.20;;
45944;SDS011;31655;48.972;10.686;2023-03-13T10:56:50;3.10;;;1.58;;
45944;SDS011;31655;48.972;10.686;2023-03-13T10:59:18;4.65;;;1.20;;
45944;SDS011;31655;48.972;10.686;2023-03-13T11:01:49;2.00;;;1.10;;
45944;SDS011;31655;48.972;10.686;2023-03-13T11:04:24;4.57;;;1.25;;
45944;SDS011;31655;48.972;10.686;2023-03-13T11:07:04;1.98;;;1.10;;
45944;SDS011;31655;48.972;10.686;2023-03-13T11:09:37;2.47;;;1.48;;
45944;SDS011;31655;48.972;10.686;2023-03-13T11:12:05;3.10;;;1.42;;
45944;SDS011;31655;48.972;10.686;2023-03-13T11:14:36;1.13;;;0.93;;
45944;SDS011;31655;48.972;10.686;2023-03-13T11:22:05;4.88;;;1.73;;
45944;SDS011;31655;48.972;10.686;2023-03-13T11:36:13;10.50;;;1.38;;
45944;SDS011;31655;48.972;10.686;2023-03-13T12:01:34;3.03;;;1.45;;
45944;SDS011;31655;48.972;10.686;2023-03-13T12:06:46;1.55;;;1.42;;
45944;SDS011;31655;48.972;10.686;2023-03-13T12:09:30;4.40;;;1.48;;
45944;SDS011;31655;48.972;10.686;2023-03-13T12:12:04;2.75;;;1.45;;
45944;SDS011;31655;48.972;10.686;2023-03-13T12:17:43;4.23;;;1.37;;
45944;SDS011;31655;48.972;10.686;2023-03-13T12:20:22;2.80;;;1.50;;
45944;SDS011;31655;48.972;10.686;2023-03-13T12:25:56;1.83;;;1.60;;
45944;SDS011;31655;48.972;10.686;2023-03-13T12:28:30;2.90;;;1.20;;
45944;SDS011;31655;48.972;10.686;2023-03-13T12:33:41;2.13;;;1.17;;
45944;SDS011;31655;48.972;10.686;2023-03-13T12:41:37;2.00;;;1.50;;
45944;SDS011;31655;48.972;10.686;2023-03-13T12:44:11;3.05;;;1.65;;
45944;SDS011;31655;48.972;10.686;2023-03-13T12:57:11;3.60;;;1.70;;
45944;SDS011;31655;48.972;10.686;2023-03-13T12:59:39;3.45;;;1.33;;
45944;SDS011;31655;48.972;10.686;2023-03-13T13:02:27;3.63;;;1.55;;
45944;SDS011;31655;48.972;10.686;2023-03-13T13:04:55;1.88;;;1.27;;
45944;SDS011;31655;48.972;10.686;2023-03-13T13:12:41;2.08;;;1.27;;
45944;SDS011;31655;48.972;10.686;2023-03-13T13:20:28;1.85;;;1.13;;
45944;SDS011;31655;48.972;10.686;2023-03-13T13:23:15;1.92;;;1.30;;
45944;SDS011;31655;48.972;10.686;2023-03-13T13:25:42;1.30;;;1.20;;
45944;SDS011;31655;48.972;10.686;2023-03-13T13:30:49;3.47;;;1.45;;
45944;SDS011;31655;48.972;10.686;2023-03-13T13:38:33;3.55;;;1.80;;
45944;SDS011;31655;48.972;10.686;2023-03-13T13:44:20;3.72;;;1.60;;
45944;SDS011;31655;48.972;10.686;2023-03-13T13:46:42;4.85;;;1.25;;
45944;SDS011;31655;48.972;10.686;2023-03-13T13:49:13;2.30;;;1.35;;
45944;SDS011;31655;48.972;10.686;2023-03-13T13:51:39;2.53;;;1.40;;
45944;SDS011;31655;48.972;10.686;2023-03-13T13:57:29;7.80;;;3.90;;
45944;SDS011;31655;48.972;10.686;2023-03-13T13:59:53;5.13;;;1.80;;
45944;SDS011;31655;48.972;10.686;2023-03-13T14:02:44;2.63;;;1.50;;
45944;SDS011;31655;48.972;10.686;2023-03-13T14:05:22;4.35;;;1.63;;
45944;SDS011;31655;48.972;10.686;2023-03-13T14:07:54;1.63;;;1.52;;
45944;SDS011;31655;48.972;10.686;2023-03-13T14:10:44;7.72;;;1.38;;
45944;SDS011;31655;48.972;10.686;2023-03-13T14:13:16;3.35;;;1.77;;
45944;SDS011;31655;48.972;10.686;2023-03-13T14:15:52;4.05;;;1.55;;
45944;SDS011;31655;48.972;10.686;2023-03-13T14:20:51;4.80;;;1.33;;
45944;SDS011;31655;48.972;10.686;2023-03-13T14:23:34;4.93;;;1.30;;
45944;SDS011;31655;48.972;10.686;2023-03-13T14:26:17;2.53;;;1.48;;
45944;SDS011;31655;48.972;10.686;2023-03-13T14:28:50;2.67;;;1.42;;
45944;SDS011;31655;48.972;10.686;2023-03-13T14:34:01;4.93;;;1.63;;
45944;SDS011;31655;48.972;10.686;2023-03-13T14:36:28;2.80;;;1.38;;
45944;SDS011;31655;48.972;10.686;2023-03-13T14:38:55;4.70;;;1.80;;
45944;SDS011;31655;48.972;10.686;2023-03-13T14:41:23;1.90;;;1.33;;
45944;SDS011;31655;48.972;10.686;2023-03-13T14:43:54;4.88;;;1.98;;
45944;SDS011;31655;48.972;10.686;2023-03-13T14:46:29;3.50;;;1.73;;
45944;SDS011;31655;48.972;10.686;2023-03-13T14:49:17;4.93;;;1.63;;
45944;SDS011;31655;48.972;10.686;2023-03-13T14:51:45;3.95;;;2.00;;
45944;SDS011;31655;48.972;10.686;2023-03-13T14:54:23;4.45;;;1.50;;
45944;SDS011;31655;48.972;10.686;2023-03-13T14:57:04;3.45;;;1.10;;
45944;SDS011;31655;48.972;10.686;2023-03-13T14:59:34;3.13;;;1.52;;
45944;SDS011;31655;48.972;10.686;2023-03-13T15:02:00;5.72;;;2.28;;
45944;SDS011;31655;48.972;10.686;2023-03-13T15:07:24;3.13;;;1.95;;
45944;SDS011;31655;48.972;10.686;2023-03-13T15:10:20;3.20;;;2.13;;
45944;SDS011;31655;48.972;10.686;2023-03-13T15:12:49;3.22;;;2.33;;
45944;SDS011;31655;48.972;10.686;2023-03-13T15:15:16;3.42;;;2.42;;
45944;SDS011;31655;48.972;10.686;2023-03-13T15:17:42;4.90;;;1.80;;
45944;SDS011;31655;48.972;10.686;2023-03-13T15:20:09;3.90;;;2.00;;
45944;SDS011;31655;48.972;10.686;2023-03-13T15:22:38;3.28;;;1.80;;
45944;SDS011;31655;48.972;10.686;2023-03-13T15:27:41;4.07;;;1.95;;
45944;SDS011;31655;48.972;10.686;2023-03-13T15:30:07;5.05;;;1.98;;
45944;SDS011;31655;48.972;10.686;2023-03-13T15:32:39;3.63;;;1.77;;
45944;SDS011;31655;48.972;10.686;2023-03-13T15:35:28;3.75;;;1.50;;
45944;SDS011;31655;48.972;10.686;2023-03-13T15:37:54;6.95;;;2.85;;
45944;SDS011;31655;48.972;10.686;2023-03-13T15:40:20;2.35;;;1.38;;
45944;SDS011;31655;48.972;10.686;2023-03-13T15:42:48;3.72;;;1.50;;
45944;SDS011;31655;48.972;10.686;2023-03-13T15:45:14;3.75;;;1.30;;
45944;SDS011;31655;48.972;10.686;2023-03-13T15:47:39;2.50;;;1.35;;
45944;SDS011;31655;48.972;10.686;2023-03-13T15:50:09;4.13;;;1.40;;
45944;SDS011;31655;48.972;10.686;2023-03-13T15:52:36;4.90;;;1.60;;
45944;SDS011;31655;48.972;10.686;2023-03-13T15:55:02;2.15;;;1.30;;
45944;SDS011;31655;48.972;10.686;2023-03-13T15:57:31;1.65;;;1.15;;
45944;SDS011;31655;48.972;10.686;2023-03-13T15:59:57;4.95;;;1.35;;
45944;SDS011;31655;48.972;10.686;2023-03-13T16:02:23;1.80;;;1.38;;
45944;SDS011;31655;48.972;10.686;2023-03-13T16:04:49;2.08;;;1.38;;
45944;SDS011;31655;48.972;10.686;2023-03-13T16:07:16;3.90;;;1.13;;
45944;SDS011;31655;48.972;10.686;2023-03-13T16:09:44;3.80;;;1.42;;
45944;SDS011;31655;48.972;10.686;2023-03-13T16:12:11;4.63;;;1.27;;
45944;SDS011;31655;48.972;10.686;2023-03-13T16:14:37;2.53;;;1.10;;
45944;SDS011;31655;48.972;10.686;2023-03-13T16:17:09;3.28;;;1.10;;
45944;SDS011;31655;48.972;10.686;2023-03-13T16:19:37;4.13;;;1.17;;
45944;SDS011;31655;48.972;10.686;2023-03-13T16:22:03;2.50;;;1.17;;
45944;SDS011;31655;48.972;10.686;2023-03-13T16:24:29;2.60;;;1.35;;
45944;SDS011;31655;48.972;10.686;2023-03-13T16:26:55;3.75;;;1.00;;
45944;SDS011;31655;48.972;10.686;2023-03-13T16:29:21;3.97;;;1.50;;
45944;SDS011;31655;48.972;10.686;2023-03-13T16:31:46;4.43;;;1.30;;
45944;SDS011;31655;48.972;10.686;2023-03-13T16:34:12;2.95;;;1.10;;
45944;SDS011;31655;48.972;10.686;2023-03-13T16:36:38;5.00;;;0.73;;
45944;SDS011;31655;48.972;10.686;2023-03-13T16:39:05;3.80;;;1.48;;
45944;SDS011;31655;48.972;10.686;2023-03-13T16:41:36;3.75;;;0.98;;
45944;SDS011;31655;48.972;10.686;2023-03-13T16:44:01;6.75;;;1.23;;
45944;SDS011;31655;48.972;10.686;2023-03-13T16:49:00;2.67;;;1.42;;
45944;SDS011;31655;48.972;10.686;2023-03-13T16:51:27;2.90;;;1.15;;
45944;SDS011;31655;48.972;10.686;2023-03-13T16:53:53;1.35;;;1.00;;
45944;SDS011;31655;48.972;10.686;2023-03-13T16:56:24;1.85;;;1.30;;
45944;SDS011;31655;48.972;10.686;2023-03-13T16:58:58;1.52;;;0.85;;
45944;SDS011;31655;48.972;10.686;2023-03-13T17:01:25;2.88;;;1.58;;
45944;SDS011;31655;48.972;10.686;2023-03-13T17:03:52;6.20;;;1.13;;
45944;SDS011;31655;48.972;10.686;2023-03-13T17:06:21;2.08;;;1.33;;
45944;SDS011;31655;48.972;10.686;2023-03-13T17:08:49;2.67;;;0.88;;
45944;SDS011;31655;48.972;10.686;2023-03-13T17:11:15;1.85;;;1.23;;
45944;SDS011;31655;48.972;10.686;2023-03-13T17:13:43;2.70;;;0.88;;
45944;SDS011;31655;48.972;10.686;2023-03-13T17:16:11;1.42;;;0.90;;
45944;SDS011;31655;48.972;10.686;2023-03-13T17:18:39;1.10;;;0.93;;
45944;SDS011;31655;48.972;10.686;2023-03-13T17:21:09;0.55;;;0.55;;
45944;SDS011;31655;48.972;10.686;2023-03-13T17:23:40;3.35;;;1.65;;
45944;SDS011;31655;48.972;10.686;2023-03-13T17:26:13;2.13;;;0.93;;
45944;SDS011;31655;48.972;10.686;2023-03-13T17:28:41;3.78;;;0.73;;
45944;SDS011;31655;48.972;10.686;2023-03-13T17:31:10;1.17;;;0.90;;
45944;SDS011;31655;48.972;10.686;2023-03-13T17:33:36;1.33;;;0.80;;
45944;SDS011;31655;48.972;10.686;2023-03-13T17:38:45;0.80;;;0.70;;
45944;SDS011;31655;48.972;10.686;2023-03-13T17:41:17;1.73;;;0.88;;
45944;SDS011;31655;48.972;10.686;2023-03-13T17:43:44;2.03;;;0.98;;
45944;SDS011;31655;48.972;10.686;2023-03-13T17:46:23;1.20;;;0.93;;
45944;SDS011;31655;48.972;10.686;2023-03-13T17:48:50;1.25;;;0.88;;
45944;SDS011;31655;48.972;10.686;2023-03-13T17:51:21;1.65;;;0.98;;
45944;SDS011;31655;48.972;10.686;2023-03-13T17:53:48;0.98;;;0.50;;
45944;SDS011;31655;48.972;10.686;2023-03-13T17:56:17;1.92;;;0.75;;
45944;SDS011;31655;48.972;10.686;2023-03-13T17:58:43;2.70;;;0.88;;
45944;SDS011;31655;48.972;10.686;2023-03-13T18:01:10;1.88;;;1.00;;
45944;SDS011;31655;48.972;10.686;2023-03-13T18:03:38;4.70;;;1.38;;
45944;SDS011;31655;48.972;10.686;2023-03-13T18:06:05;3.10;;;0.82;;
45944;SDS011;31655;48.972;10.686;2023-03-13T18:08:38;2.65;;;0.80;;